• Join FlightAware (Why Join?)
  • Login
  • US Flag 
04:50AM EDT


 

Airport Tracker/Info


-or-


 

Live Flight TrackerFlight Track Log ✈ AIE828 ✈ 28-Jul-2013 ✈ CYVP - CYZG

Flight Track Log - Related Links

Times and Time Zones

All times are in EDT time to prevent confusion due to time zone crossing. See the AIE828 flight status page for this flight to view local times or setup timezone preferences in your user account.

Time Position Orientation Groundspeed Altitude Reporting Facility
EDT Latitude Longitude Course Direction KTS MPH feet Rate Location/Type
02:12PM 58.0833 -68.4500 338° Northwest 130 150 1,500  Level Montreal Center
02:13PM 58.1167 -68.4667 345° North 170 196 3,000 1,500 Climbing Montreal Center
02:14PM 58.1667 -68.5167 332° Northwest 180 207 4,600 1,620 Climbing Montreal Center
02:15PM 58.2167 -68.5500 341° North 180 207 6,300 1,560 Climbing Montreal Center
02:16PM 58.2667 -68.5667 350° North 180 207 7,800 1,500 Climbing Montreal Center
02:17PM 58.3167 -68.6167 332° Northwest 190 219 9,300 1,380 Climbing Montreal Center
02:18PM 58.5515 -68.7743 338° Northwest  Level FlightAware Approximate
02:18PM 58.3667 -68.6667 332° Northwest 200 230 10,600  Level Montreal Center
02:19PM 58.4167 -68.7000 341° North 210 242 11,700 1,080 Climbing Montreal Center
02:20PM 58.4833 -68.7500 339° North 220 253 12,800 600 Climbing Montreal Center
02:21PM 58.5500 -68.8000 339° North 230 265 13,000 60 Climbing Montreal Center
02:22PM 58.6167 -68.8500 339° North 260 299 13,000  Level Montreal Center
02:23PM 58.6833 -68.9000 339° North 270 311 13,000  Level Montreal Center
02:24PM 58.7500 -68.9500 339° North 270 311 13,000  Level Montreal Center
02:25PM 58.8333 -69.0000 343° North 270 311 13,000  Level Montreal Center
02:26PM 58.9000 -69.0500 339° North 270 311 13,000  Level Montreal Center
02:27PM 58.9667 -69.1000 339° North 270 311 13,000  Level Montreal Center
02:28PM 59.0333 -69.1667 333° Northwest 270 311 13,000  Level Montreal Center
02:29PM 59.1000 -69.2167 339° North 270 311 13,000  Level Montreal Center
02:30PM 59.1833 -69.2667 343° North 280 322 13,000  Level Montreal Center
02:31PM 59.2500 -69.3500 327° Northwest 280 322 13,000  Level Montreal Center
02:32PM 59.3333 -69.4000 343° North 280 322 13,000 -360 Level Montreal Center
02:33PM 59.4000 -69.4500 339° North 280 322 12,300 -1,080 Descending Montreal Center
02:34PM 59.4667 -69.5000 339° North 290 334 10,900 -1,380 Descending Montreal Center
02:35PM 59.5500 -69.5500 343° North 290 334 9,600 -1,320 Descending Montreal Center
02:36PM 59.6167 -69.6167 333° Northwest 280 322 8,300 -1,320 Descending Montreal Center
02:37PM 59.6833 -69.6667 339° North 270 311 7,000 -1,260 Descending Montreal Center
02:38PM 59.7500 -69.7167 339° North 260 299 5,800 -1,200 Descending Montreal Center
02:39PM 59.8167 -69.7667 339° North 260 299 4,600 -1,200 Descending Montreal Center
02:41PM 59.8948 -69.8510 332° Northwest  Level FlightAware Approximate
02:48PM 60.3777 -69.8558 10° North  Level FlightAware Approximate
02:49PM 60.4487 -69.8304 10° North  Level FlightAware Approximate
02:50PM 60.5196 -69.8048 10° North  Level FlightAware Approximate
02:51PM 60.5906 -69.7792 10° North  Level FlightAware Approximate
02:52PM 60.6615 -69.7535 10° North  Level FlightAware Approximate
02:53PM 60.7325 -69.7276 10° North  Level FlightAware Approximate
02:54PM 60.8034 -69.7017 10° North  Level FlightAware Approximate
02:55PM 60.8744 -69.6756 10° North  Level FlightAware Approximate
02:56PM 60.9453 -69.6494 10° North  Level FlightAware Approximate
02:57PM 61.0162 -69.6230 10° North  Level FlightAware Approximate
02:58PM 61.0585 -69.7169 297° West  Level FlightAware Approximate
02:59PM 61.0916 -69.8493 297° West  Level FlightAware Approximate
03:00PM 61.1246 -69.9819 297° West  Level FlightAware Approximate
03:01PM 61.1574 -70.1148 297° West  Level FlightAware Approximate
03:02PM 61.1901 -70.2480 297° West  Level FlightAware Approximate
03:03PM 61.2227 -70.3815 297° West  Level FlightAware Approximate
03:04PM 61.2551 -70.5152 297° West  Level FlightAware Approximate
03:05PM 61.2874 -70.6492 297° West  Level FlightAware Approximate
03:06PM 61.3196 -70.7835 297° West  Level FlightAware Approximate
03:07PM 61.3517 -70.9181 296° West  Level FlightAware Approximate
03:08PM 61.3836 -71.0529 296° West  Level FlightAware Approximate
03:09PM 61.4154 -71.1880 296° West  Level FlightAware Approximate
03:10PM 61.4470 -71.3234 296° West  Level FlightAware Approximate
03:11PM 61.4785 -71.4591 296° West  Level FlightAware Approximate
03:12PM 61.5099 -71.5950 296° West  Level FlightAware Approximate
03:13PM 61.5411 -71.7312 296° West  Level FlightAware Approximate
03:14PM 61.5722 -71.8677 296° West  Level FlightAware Approximate
03:15PM 61.5990 -72.0082 290° West  Level FlightAware Approximate
03:16PM 61.6232 -72.1509 290° West  Level FlightAware Approximate
03:17PM 61.6473 -72.2939 290° West  Level FlightAware Approximate
03:18PM 61.6713 -72.4371 289° West  Level FlightAware Approximate
03:19PM 61.6951 -72.5805 289° West  Level FlightAware Approximate
03:20PM 61.7187 -72.7241 289° West  Level FlightAware Approximate
03:21PM 61.7422 -72.8679 289° West  Level FlightAware Approximate
03:22PM 61.7656 -73.0120 289° West  Level FlightAware Approximate
03:23PM 61.7888 -73.1563 289° West  Level FlightAware Approximate
03:24PM 61.8118 -73.3008 289° West  Level FlightAware Approximate
03:25PM 61.8347 -73.4455 289° West  Level FlightAware Approximate
03:26PM 61.8575 -73.5904 288° West  Level FlightAware Approximate
03:27PM 61.8801 -73.7355 288° West  Level FlightAware Approximate
03:28PM 61.9025 -73.8809 288° West  Level FlightAware Approximate
03:29PM 61.9248 -74.0265 288° West  Level FlightAware Approximate
03:30PM 61.9469 -74.1722 288° West  Level FlightAware Approximate
03:31PM 61.9689 -74.3182 288° West  Level FlightAware Approximate
03:32PM 61.9907 -74.4644 288° West  Level FlightAware Approximate
03:33PM 62.0124 -74.6108 288° West  Level FlightAware Approximate
03:34PM 62.0339 -74.7575 287° West  Level FlightAware Approximate
03:35PM 62.0552 -74.9043 287° West  Level FlightAware Approximate
03:36PM 62.0771 -75.0508 288° West  Level FlightAware Approximate
03:37PM 62.0996 -75.1971 288° West  Level FlightAware Approximate
03:38PM 62.1278 -75.3389 293° West  Level FlightAware Approximate
03:39PM 62.1455 -75.4879 282° West  Level FlightAware Approximate
03:40PM 62.1630 -75.6375 285° West  Level FlightAware Approximate
03:41PM 62.1667 -75.6667 285° West  Level FlightAware Approximate
03:42PM 62.1792 -75.6669 285° West  Level Estimated
03:43PM 62.1792 -75.6669 285° West  Level Estimated
03:44PM 62.1792 -75.6669 285° West  Level Estimated
03:45PM 62.1792 -75.6669 285° West  Level Estimated
03:46PM 62.1792 -75.6669 285° West  Level Estimated
03:47PM 62.1792 -75.6669 285° West  Level Estimated
03:48PM 62.1792 -75.6669 285° West  Level Estimated
03:49PM 62.1792 -75.6669 285° West  Level Estimated
03:50PM 62.1792 -75.6669 285° West  Level Estimated
03:51PM 62.1792 -75.6669 285° West  Level Estimated
03:52PM 62.1792 -75.6669 285° West  Level Estimated
03:53PM 62.1792 -75.6669 285° West  Level Estimated